Time;durP1;ratioP1;P1;durP2;ratioP2;P2;SDS_P1;SDS_P2;PMS_P1;PMS_P2;Temp;Humidity;BMP_temperature;BMP_pressure;BME280_temperature;BME280_humidity;BME280_pressure;Samples;Min_cycle;Max_cycle;Signal;HPM_P1;HPM_P2
2022/03/05 00:01:47;;;;;;;;;97.25;72.25;;;;;;;;5228653;28;11566;-71
2022/03/05 00:04:18;;;;;;;;;99.67;78.67;;;;;;;;5228616;28;8786;-71
2022/03/05 00:06:49;;;;;;;;;77.25;61.50;;;;;;;;5228756;28;8830;-71
2022/03/05 00:09:20;;;;;;;;;85.80;66.40;;;;;;;;5227403;28;11596;-70
2022/03/05 00:11:51;;;;;;;;;92.50;70.00;;;;;;;;5228624;28;8814;-70
2022/03/05 00:14:22;;;;;;;;;81.75;66.25;;;;;;;;5210816;28;10045;-71
2022/03/05 00:16:53;;;;;;;;;80.25;64.25;;;;;;;;5228699;28;8782;-71
2022/03/05 00:19:24;;;;;;;;;93.33;72.33;;;;;;;;5227071;28;9667;-71
2022/03/05 00:22:14;;;;;;;;;86.00;69.00;;;;;;;;5226955;28;11543;-72
2022/03/05 00:24:45;;;;;;;;;99.67;76.67;;;;;;;;5227088;28;8793;-71
2022/03/05 00:27:19;;;;;;;;;104.00;74.25;;;;;;;;5228549;28;10682;-72
2022/03/05 00:29:51;;;;;;;;;94.00;76.25;;;;;;;;5228243;28;8784;-71
2022/03/05 00:32:22;;;;;;;;;91.75;72.00;;;;;;;;5226930;28;8809;-71
2022/03/05 00:34:52;;;;;;;;;83.75;69.25;;;;;;;;5227748;28;8786;-72
2022/03/05 00:37:42;;;;;;;;;86.60;68.40;;;;;;;;5227269;28;11614;-72
2022/03/05 00:40:31;;;;;;;;;78.20;63.00;;;;;;;;5227029;28;8797;-71
2022/03/05 00:43:02;;;;;;;;;79.00;63.00;;;;;;;;5227884;28;8804;-71
2022/03/05 00:45:33;;;;;;;;;80.40;64.20;;;;;;;;5226839;28;11566;-71
2022/03/05 00:48:04;;;;;;;;;72.75;60.00;;;;;;;;5227831;28;8797;-71
2022/03/05 00:50:35;;;;;;;;;68.00;55.80;;;;;;;;5235338;28;9543;-71
2022/03/05 00:53:06;;;;;;;;;62.80;52.60;;;;;;;;5248465;28;8843;-71
2022/03/05 00:55:37;;;;;;;;;64.20;50.80;;;;;;;;5231244;28;8773;-71
2022/03/05 00:58:08;;;;;;;;;80.80;65.80;;;;;;;;5248162;28;8780;-71
2022/03/05 01:00:39;;;;;;;;;69.25;57.75;;;;;;;;5230617;28;8780;-71
2022/03/05 01:03:10;;;;;;;;;69.75;58.00;;;;;;;;5230588;28;8907;-71
2022/03/05 01:05:41;;;;;;;;;69.80;58.00;;;;;;;;5248095;28;8878;-71
2022/03/05 01:08:33;;;;;;;;;74.20;61.00;;;;;;;;5233155;28;8765;-71
2022/03/05 01:11:04;;;;;;;;;73.40;56.20;;;;;;;;5230196;28;9507;-72
2022/03/05 01:13:36;;;;;;;;;64.20;54.60;;;;;;;;5213417;28;8805;-71
2022/03/05 01:16:25;;;;;;;;;66.20;54.20;;;;;;;;5249294;28;8761;-70
2022/03/05 01:18:56;;;;;;;;;70.25;56.75;;;;;;;;5248019;28;8862;-70
2022/03/05 01:21:27;;;;;;;;;66.00;53.25;;;;;;;;5229947;28;9186;-71
2022/03/05 01:23:58;;;;;;;;;74.20;57.40;;;;;;;;5213826;28;8792;-70
2022/03/05 01:26:30;;;;;;;;;77.60;60.40;;;;;;;;5230140;28;8781;-70
2022/03/05 01:29:01;;;;;;;;;69.40;53.80;;;;;;;;5230317;28;8785;-70
2022/03/05 01:31:50;;;;;;;;;67.80;52.40;;;;;;;;5230207;28;8958;-70
2022/03/05 01:34:21;;;;;;;;;43.25;39.25;;;;;;;;5229470;28;8915;-71
2022/03/05 01:36:52;;;;;;;;;64.40;51.80;;;;;;;;5230204;28;8846;-71
2022/03/05 01:39:23;;;;;;;;;55.40;50.20;;;;;;;;5247546;28;8772;-71
2022/03/05 01:41:55;;;;;;;;;89.40;67.40;;;;;;;;5213308;28;8861;-71
2022/03/05 01:44:26;;;;;;;;;56.60;50.00;;;;;;;;5213367;28;8753;-72
2022/03/05 01:47:00;;;;;;;;;68.50;59.00;;;;;;;;5229805;28;8808;-72
2022/03/05 01:49:31;;;;;;;;;40.40;36.60;;;;;;;;5229322;28;12211;-72
2022/03/05 01:52:02;;;;;;;;;67.50;57.75;;;;;;;;5246361;28;8877;-72
2022/03/05 01:54:33;;;;;;;;;61.80;51.00;;;;;;;;5247002;28;8840;-72
2022/03/05 01:57:04;;;;;;;;;73.20;57.60;;;;;;;;5247266;28;8785;-72
2022/03/05 01:59:35;;;;;;;;;59.75;49.75;;;;;;;;5247383;28;8768;-72
2022/03/05 02:02:06;;;;;;;;;80.50;62.75;;;;;;;;5229399;28;8785;-74
2022/03/05 02:04:37;;;;;;;;;82.00;66.00;;;;;;;;5229606;28;9629;-74
2022/03/05 02:07:08;;;;;;;;;76.25;63.00;;;;;;;;5212592;28;8935;-74
2022/03/05 02:09:58;;;;;;;;;56.00;49.40;;;;;;;;5227726;28;8930;-73
2022/03/05 02:12:33;;;;;;;;;75.50;57.25;;;;;;;;5196378;28;8939;-72
2022/03/05 02:15:07;;;;;;;;;75.40;60.80;;;;;;;;5229485;28;10751;-72
2022/03/05 02:17:38;;;;;;;;;74.60;60.60;;;;;;;;5212392;28;9597;-72
2022/03/05 02:20:28;;;;;;;;;72.80;60.00;;;;;;;;5229226;28;8787;-72
2022/03/05 02:22:59;;;;;;;;;61.40;51.40;;;;;;;;5229102;28;8788;-73
2022/03/05 02:25:30;;;;;;;;;84.20;63.80;;;;;;;;5246901;28;8772;-72
2022/03/05 02:28:01;;;;;;;;;66.75;49.50;;;;;;;;5212304;28;8785;-72
2022/03/05 02:30:32;;;;;;;;;62.40;51.40;;;;;;;;5229304;28;8804;-73
2022/03/05 02:33:03;;;;;;;;;75.40;58.20;;;;;;;;5245821;28;8805;-79
2022/03/05 02:35:34;;;;;;;;;72.40;59.20;;;;;;;;5210927;28;8888;-73
2022/03/05 02:38:05;;;;;;;;;72.25;59.50;;;;;;;;5223026;28;8807;-73
2022/03/05 02:40:55;;;;;;;;;68.60;54.80;;;;;;;;5246622;28;8861;-75
2022/03/05 02:43:26;;;;;;;;;62.25;52.00;;;;;;;;5246512;28;8787;-74
2022/03/05 02:45:57;;;;;;;;;68.40;55.60;;;;;;;;5228693;28;11508;-74
2022/03/05 02:48:47;;;;;;;;;71.20;57.20;;;;;;;;5240537;28;8872;-74
2022/03/05 02:51:17;;;;;;;;;57.00;49.00;;;;;;;;5244114;28;8804;-73
2022/03/05 02:53:48;;;;;;;;;79.75;64.50;;;;;;;;5246437;28;9503;-74
2022/03/05 02:56:19;;;;;;;;;66.40;52.40;;;;;;;;5214667;28;8796;-76
2022/03/05 02:58:50;;;;;;;;;69.00;51.25;;;;;;;;5233488;28;8876;-76
2022/03/05 03:01:23;;;;;;;;;92.25;68.00;;;;;;;;5228398;28;11591;-74
2022/03/05 03:03:54;;;;;;;;;42.80;38.40;;;;;;;;5245282;28;8779;-77
2022/03/05 03:06:25;;;;;;;;;32.25;28.25;;;;;;;;5224051;28;9593;-72
2022/03/05 03:08:56;;;;;;;;;35.50;33.75;;;;;;;;5228239;28;8777;-72
2022/03/05 03:11:27;;;;;;;;;45.25;43.50;;;;;;;;5245780;28;8800;-72
2022/03/05 03:13:58;;;;;;;;;56.00;44.60;;;;;;;;5211662;28;8797;-72
2022/03/05 03:16:29;;;;;;;;;38.50;36.75;;;;;;;;5228366;28;8777;-72
2022/03/05 03:19:00;;;;;;;;;19.20;19.20;;;;;;;;5244439;28;9609;-72
2022/03/05 03:21:31;;;;;;;;;47.40;40.40;;;;;;;;5226055;28;8799;-73
2022/03/05 03:24:20;;;;;;;;;39.20;38.00;;;;;;;;5238257;28;8800;-72
2022/03/05 03:26:52;;;;;;;;;32.40;26.20;;;;;;;;5209175;28;8813;-72
2022/03/05 03:29:23;;;;;;;;;29.20;28.60;;;;;;;;5239032;28;8815;-72
2022/03/05 03:31:54;;;;;;;;;39.80;37.60;;;;;;;;5231245;28;8816;-72
2022/03/05 03:34:25;;;;;;;;;37.25;34.25;;;;;;;;5249009;28;8810;-72
2022/03/05 03:36:56;;;;;;;;;31.60;31.60;;;;;;;;5248812;28;8771;-72
2022/03/05 03:39:27;;;;;;;;;44.20;39.60;;;;;;;;5249999;28;8802;-72
2022/03/05 03:41:58;;;;;;;;;48.75;37.75;;;;;;;;5248694;28;8806;-72
2022/03/05 03:44:29;;;;;;;;;40.00;38.75;;;;;;;;5249600;28;8791;-72
2022/03/05 03:47:00;;;;;;;;;52.20;47.40;;;;;;;;5232292;28;8773;-72
2022/03/05 03:49:49;;;;;;;;;77.00;61.00;;;;;;;;5231701;28;8816;-72
2022/03/05 03:52:20;;;;;;;;;85.00;67.75;;;;;;;;5249689;28;8824;-72
2022/03/05 03:54:51;;;;;;;;;52.50;48.75;;;;;;;;5215339;28;8789;-72
2022/03/05 03:57:22;;;;;;;;;49.25;46.75;;;;;;;;5232329;28;9214;-72
2022/03/05 03:59:53;;;;;;;;;40.60;37.60;;;;;;;;5215183;28;11481;-72
2022/03/05 04:02:28;;;;;;;;;55.20;48.40;;;;;;;;5215051;28;8811;-72
2022/03/05 04:04:59;;;;;;;;;56.00;48.80;;;;;;;;5231104;28;8789;-72
2022/03/05 04:10:20;;;;;;;;;40.40;38.60;;;;;;;;5231362;28;9495;-73
2022/03/05 04:12:51;;;;;;;;;43.20;40.00;;;;;;;;5231762;28;8805;-74
2022/03/05 04:15:21;;;;;;;;;19.50;18.75;;;;;;;;5231453;28;8777;-74
2022/03/05 04:17:53;;;;;;;;;27.80;27.20;;;;;;;;5232237;28;8760;-73
2022/03/05 04:20:24;;;;;;;;;17.80;16.80;;;;;;;;5214578;28;8809;-73
2022/03/05 04:23:13;;;;;;;;;27.60;25.40;;;;;;;;5248698;28;8825;-72
2022/03/05 04:25:44;;;;;;;;;4.60;4.60;;;;;;;;5231454;28;8766;-72
2022/03/05 04:28:15;;;;;;;;;17.40;17.40;;;;;;;;5230865;28;8777;-72
2022/03/05 04:30:46;;;;;;;;;8.25;8.25;;;;;;;;5231335;28;8773;-71
2022/03/05 04:33:17;;;;;;;;;13.75;13.75;;;;;;;;5231159;28;11400;-72
2022/03/05 04:35:48;;;;;;;;;22.75;22.00;;;;;;;;5214509;28;8796;-76
2022/03/05 04:38:19;;;;;;;;;11.00;11.00;;;;;;;;5248920;28;8788;-74
2022/03/05 04:40:50;;;;;;;;;22.80;19.00;;;;;;;;5248685;28;8781;-73
2022/03/05 04:43:21;;;;;;;;;20.50;20.50;;;;;;;;5230999;28;8811;-69
2022/03/05 04:45:51;;;;;;;;;14.00;14.00;;;;;;;;5231126;28;9181;-70
2022/03/05 04:48:22;;;;;;;;;16.00;15.00;;;;;;;;5230611;28;11465;-69
2022/03/05 04:50:53;;;;;;;;;10.25;10.25;;;;;;;;5213563;28;11515;-70
2022/03/05 04:53:25;;;;;;;;;4.20;4.20;;;;;;;;5230319;28;11524;-70
2022/03/05 04:55:56;;;;;;;;;5.25;5.25;;;;;;;;5230923;28;8907;-70
2022/03/05 04:58:27;;;;;;;;;13.00;13.00;;;;;;;;5248234;28;9735;-69
2022/03/05 05:00:58;;;;;;;;;11.50;11.00;;;;;;;;5248446;28;10201;-71
2022/03/05 05:03:29;;;;;;;;;15.25;15.25;;;;;;;;5214036;28;11398;-71
2022/03/05 05:06:00;;;;;;;;;7.00;7.00;;;;;;;;5230586;28;8854;-70
2022/03/05 05:08:31;;;;;;;;;13.40;13.40;;;;;;;;5213546;28;8823;-69
2022/03/05 05:11:02;;;;;;;;;10.00;10.00;;;;;;;;5247819;28;8781;-69
2022/03/05 05:13:32;;;;;;;;;1.00;0.40;;;;;;;;5213978;28;8796;-70
2022/03/05 05:16:05;;;;;;;;;12.80;12.80;;;;;;;;5230421;28;8785;-69
2022/03/05 05:18:37;;;;;;;;;18.80;18.60;;;;;;;;5230432;28;8857;-69
2022/03/05 05:21:07;;;;;;;;;8.20;8.20;;;;;;;;5230510;28;8796;-69
2022/03/05 05:23:38;;;;;;;;;0.00;0.00;;;;;;;;5247924;28;9480;-68
2022/03/05 05:26:10;;;;;;;;;2.00;2.00;;;;;;;;5247207;28;8773;-69
2022/03/05 05:28:40;;;;;;;;;6.00;6.00;;;;;;;;5197453;28;8776;-69
2022/03/05 05:31:11;;;;;;;;;3.50;3.25;;;;;;;;5248469;28;8890;-69
2022/03/05 05:33:44;;;;;;;;;4.00;4.00;;;;;;;;5248203;28;9503;-69
2022/03/05 05:36:33;;;;;;;;;6.60;6.60;;;;;;;;5247476;28;8823;-69
2022/03/05 05:39:05;;;;;;;;;0.80;0.80;;;;;;;;5248217;28;8919;-69
2022/03/05 05:41:37;;;;;;;;;7.40;7.40;;;;;;;;5229756;28;8797;-70
2022/03/05 05:44:09;;;;;;;;;7.00;7.00;;;;;;;;5248000;28;8773;-70
2022/03/05 05:46:40;;;;;;;;;4.00;4.00;;;;;;;;5247251;28;8788;-69
2022/03/05 05:49:11;;;;;;;;;7.00;7.00;;;;;;;;5229648;28;8769;-69
2022/03/05 05:51:43;;;;;;;;;8.20;8.20;;;;;;;;5229347;28;8812;-70
2022/03/05 05:54:14;;;;;;;;;9.00;8.50;;;;;;;;5247208;28;8788;-70
2022/03/05 05:56:45;;;;;;;;;0.00;0.00;;;;;;;;5247395;28;8804;-70
2022/03/05 05:59:16;;;;;;;;;3.00;1.00;;;;;;;;5229640;28;8777;-70
2022/03/05 06:01:47;;;;;;;;;1.50;1.50;;;;;;;;5228981;28;11457;-70
2022/03/05 06:04:18;;;;;;;;;0.25;0.25;;;;;;;;5247279;28;10610;-69
2022/03/05 06:06:49;;;;;;;;;0.00;0.00;;;;;;;;5229118;28;8821;-70
2022/03/05 06:09:20;;;;;;;;;1.50;1.50;;;;;;;;5247211;28;8777;-69
2022/03/05 06:11:51;;;;;;;;;0.80;0.80;;;;;;;;5229237;28;11466;-70
2022/03/05 06:14:22;;;;;;;;;6.00;5.40;;;;;;;;5247216;28;9537;-69
2022/03/05 06:16:53;;;;;;;;;1.60;1.60;;;;;;;;5212774;28;8793;-69
2022/03/05 06:19:24;;;;;;;;;7.00;7.00;;;;;;;;5229291;28;8769;-68
2022/03/05 06:21:56;;;;;;;;;1.60;1.60;;;;;;;;5246862;28;10526;-68
2022/03/05 06:24:45;;;;;;;;;2.60;2.60;;;;;;;;5246635;28;8873;-69
2022/03/05 06:27:16;;;;;;;;;0.00;0.00;;;;;;;;5244273;28;8785;-69
2022/03/05 06:29:47;;;;;;;;;20.50;18.75;;;;;;;;5262078;28;8923;-69
2022/03/05 06:32:18;;;;;;;;;3.80;3.80;;;;;;;;5246693;28;8789;-69
2022/03/05 06:34:49;;;;;;;;;1.00;1.00;;;;;;;;5246569;28;9483;-69
2022/03/05 06:37:20;;;;;;;;;0.20;0.20;;;;;;;;5246763;28;8845;-69
2022/03/05 06:39:51;;;;;;;;;9.40;9.40;;;;;;;;5228782;28;9580;-69
2022/03/05 06:42:22;;;;;;;;;6.50;6.25;;;;;;;;5246304;28;8793;-69
2022/03/05 06:44:53;;;;;;;;;1.00;1.00;;;;;;;;5246535;28;9343;-69
2022/03/05 06:47:24;;;;;;;;;7.50;7.50;;;;;;;;5246252;28;8967;-70
2022/03/05 06:49:54;;;;;;;;;2.50;2.50;;;;;;;;5246909;28;9785;-69
2022/03/05 06:52:44;;;;;;;;;8.00;8.00;;;;;;;;5246835;28;8843;-69
2022/03/05 06:55:16;;;;;;;;;9.00;7.50;;;;;;;;5228588;28;8785;-68
2022/03/05 06:57:47;;;;;;;;;4.00;2.40;;;;;;;;5227773;28;11441;-68
2022/03/05 07:00:20;;;;;;;;;31.20;30.20;;;;;;;;5211763;28;8761;-68
2022/03/05 07:02:51;;;;;;;;;5.20;5.20;;;;;;;;5246021;28;8801;-69
2022/03/05 07:05:22;;;;;;;;;1.40;1.40;;;;;;;;5210747;28;8792;-70
2022/03/05 07:07:53;;;;;;;;;8.20;8.20;;;;;;;;5228490;28;8819;-70
2022/03/05 07:10:42;;;;;;;;;5.00;5.00;;;;;;;;5230851;28;8773;-69
2022/03/05 07:13:14;;;;;;;;;0.00;0.00;;;;;;;;5228293;28;8911;-69
2022/03/05 07:15:45;;;;;;;;;1.75;1.75;;;;;;;;5228595;28;8781;-68
2022/03/05 07:18:15;;;;;;;;;0.00;0.00;;;;;;;;5246252;28;10831;-67
2022/03/05 07:20:47;;;;;;;;;4.00;4.00;;;;;;;;5227313;28;12090;-69
2022/03/05 07:23:18;;;;;;;;;0.80;0.80;;;;;;;;5246452;28;8781;-70
2022/03/05 07:25:49;;;;;;;;;1.00;1.00;;;;;;;;5228579;28;8991;-69
2022/03/05 07:28:19;;;;;;;;;0.50;0.50;;;;;;;;5246286;28;9468;-70
2022/03/05 07:30:51;;;;;;;;;3.00;3.00;;;;;;;;5246304;28;11415;-69
2022/03/05 07:33:23;;;;;;;;;3.40;3.40;;;;;;;;5228571;28;12157;-70
2022/03/05 07:35:54;;;;;;;;;0.00;0.00;;;;;;;;5227870;28;8812;-70
2022/03/05 07:38:25;;;;;;;;;0.00;0.00;;;;;;;;5246323;28;8781;-70
2022/03/05 07:40:56;;;;;;;;;0.00;0.00;;;;;;;;5246053;28;8784;-70
2022/03/05 07:43:27;;;;;;;;;0.00;0.00;;;;;;;;5245968;28;8773;-72
2022/03/05 07:45:58;;;;;;;;;1.50;1.50;;;;;;;;5245828;28;8831;-70
2022/03/05 07:48:29;;;;;;;;;8.40;8.40;;;;;;;;5244592;28;9126;-69
2022/03/05 07:51:02;;;;;;;;;1.80;1.80;;;;;;;;5246096;28;8792;-70
2022/03/05 07:53:33;;;;;;;;;12.00;12.00;;;;;;;;5211501;28;8781;-70
2022/03/05 07:56:04;;;;;;;;;1.00;1.00;;;;;;;;5245346;28;8934;-70
2022/03/05 07:58:35;;;;;;;;;1.00;1.00;;;;;;;;5211971;28;9046;-70
2022/03/05 08:01:05;;;;;;;;;1.00;1.00;;;;;;;;5227374;28;9005;-71
2022/03/05 08:03:36;;;;;;;;;3.00;3.00;;;;;;;;5246075;28;10425;-71
2022/03/05 08:06:07;;;;;;;;;3.75;3.75;;;;;;;;5237347;28;8857;-71
2022/03/05 08:08:38;;;;;;;;;2.00;2.00;;;;;;;;5224965;28;8791;-71
2022/03/05 08:11:10;;;;;;;;;1.50;1.50;;;;;;;;5224661;28;8918;-70
2022/03/05 08:13:41;;;;;;;;;9.00;9.00;;;;;;;;5209960;28;11427;-71
2022/03/05 08:16:31;;;;;;;;;0.60;0.60;;;;;;;;5247582;28;8777;-71
2022/03/05 08:19:02;;;;;;;;;1.00;1.00;;;;;;;;5249157;28;8881;-70
2022/03/05 08:21:34;;;;;;;;;0.00;0.00;;;;;;;;5249014;28;8820;-70
2022/03/05 08:24:05;;;;;;;;;3.00;3.00;;;;;;;;5214776;28;11526;-72
2022/03/05 08:26:54;;;;;;;;;0.00;0.00;;;;;;;;5249403;28;8785;-72
2022/03/05 08:29:25;;;;;;;;;1.00;1.00;;;;;;;;5249181;28;8831;-71
2022/03/05 08:31:56;;;;;;;;;0.75;0.75;;;;;;;;5249394;28;9574;-71
2022/03/05 08:34:45;;;;;;;;;2.20;2.20;;;;;;;;5248846;28;8789;-71
2022/03/05 08:37:16;;;;;;;;;3.50;3.00;;;;;;;;5249294;28;8791;-72
2022/03/05 08:39:47;;;;;;;;;8.50;8.50;;;;;;;;5231059;28;8768;-72
2022/03/05 08:42:17;;;;;;;;;4.50;4.50;;;;;;;;5231167;28;9480;-72
2022/03/05 08:44:48;;;;;;;;;3.50;3.50;;;;;;;;5249104;28;8761;-72
2022/03/05 08:47:19;;;;;;;;;6.00;6.00;;;;;;;;5230857;28;8781;-72
2022/03/05 08:49:50;;;;;;;;;0.25;0.25;;;;;;;;5248519;28;8865;-72
2022/03/05 08:52:21;;;;;;;;;4.00;4.00;;;;;;;;5230387;28;11500;-72
2022/03/05 08:54:52;;;;;;;;;3.80;3.80;;;;;;;;5228200;28;8778;-72
2022/03/05 08:57:23;;;;;;;;;5.00;5.00;;;;;;;;5227999;28;9489;-71
2022/03/05 08:59:54;;;;;;;;;9.50;9.50;;;;;;;;5227801;28;8795;-71
2022/03/05 09:02:24;;;;;;;;;6.00;6.00;;;;;;;;5227956;28;11452;-72
2022/03/05 09:04:55;;;;;;;;;15.75;15.75;;;;;;;;5227667;28;8772;-72
2022/03/05 09:07:27;;;;;;;;;2.50;2.50;;;;;;;;5232025;28;8809;-71
2022/03/05 09:09:58;;;;;;;;;2.60;2.60;;;;;;;;5230941;28;8785;-71
2022/03/05 09:12:47;;;;;;;;;0.80;0.80;;;;;;;;5230167;28;8881;-71
2022/03/05 09:15:37;;;;;;;;;0.00;0.00;;;;;;;;5247963;28;8780;-72
2022/03/05 09:18:08;;;;;;;;;6.60;6.60;;;;;;;;5247757;28;8785;-73
2022/03/05 09:20:39;;;;;;;;;22.00;22.00;;;;;;;;5230464;28;8857;-71
2022/03/05 09:23:11;;;;;;;;;5.20;5.20;;;;;;;;5213735;28;8777;-71
2022/03/05 09:25:42;;;;;;;;;12.00;12.00;;;;;;;;5229604;28;8767;-72
2022/03/05 09:28:12;;;;;;;;;2.20;2.20;;;;;;;;5246830;28;8770;-72
2022/03/05 09:30:43;;;;;;;;;0.00;0.00;;;;;;;;5248550;28;8797;-71
2022/03/05 09:33:14;;;;;;;;;1.00;1.00;;;;;;;;5229685;28;8814;-71
2022/03/05 09:35:45;;;;;;;;;3.00;3.00;;;;;;;;5229722;28;11425;-72
2022/03/05 09:38:16;;;;;;;;;1.50;1.50;;;;;;;;5229973;28;11375;-72
2022/03/05 09:40:47;;;;;;;;;1.00;1.00;;;;;;;;5213225;28;11404;-72
2022/03/05 09:43:19;;;;;;;;;3.00;1.00;;;;;;;;5230172;28;8781;-71
2022/03/05 09:45:50;;;;;;;;;0.00;0.00;;;;;;;;5229935;28;8850;-73
2022/03/05 09:48:21;;;;;;;;;0.00;0.00;;;;;;;;5229842;28;8807;-72
2022/03/05 09:50:52;;;;;;;;;0.00;0.00;;;;;;;;5247397;28;8800;-72
2022/03/05 09:53:29;;;;;;;;;0.00;0.00;;;;;;;;5227950;28;8931;-74
2022/03/05 09:56:00;;;;;;;;;4.00;3.20;;;;;;;;5246270;28;8831;-70
2022/03/05 09:58:31;;;;;;;;;0.00;0.00;;;;;;;;5225189;28;8861;-72
2022/03/05 10:01:02;;;;;;;;;3.50;3.50;;;;;;;;5241403;28;8794;-73
2022/03/05 10:03:47;;;;;;;;;3.60;3.00;;;;;;;;5228821;28;8754;-71
2022/03/05 10:06:19;;;;;;;;;3.80;3.80;;;;;;;;5213321;28;8912;-71
2022/03/05 10:08:55;;;;;;;;;9.00;9.00;;;;;;;;5246926;28;8774;-70
2022/03/05 10:11:37;;;;;;;;;0.00;0.00;;;;;;;;5211297;28;8935;-71
2022/03/05 10:14:17;;;;;;;;;3.60;3.60;;;;;;;;5235926;28;8799;-71
2022/03/05 10:16:48;;;;;;;;;0.00;0.00;;;;;;;;5246528;28;8790;-70
2022/03/05 10:19:21;;;;;;;;;1.00;1.00;;;;;;;;5245763;28;8879;-70
2022/03/05 10:21:59;;;;;;;;;0.00;0.00;;;;;;;;5246568;28;8797;-71
2022/03/05 10:24:32;;;;;;;;;1.40;1.40;;;;;;;;5229607;28;8868;-71
2022/03/05 10:27:04;;;;;;;;;0.80;0.80;;;;;;;;5246104;28;8794;-72
2022/03/05 10:29:37;;;;;;;;;1.00;1.00;;;;;;;;5228885;28;8831;-71
2022/03/05 10:32:09;;;;;;;;;0.00;0.00;;;;;;;;5228666;28;9519;-72
2022/03/05 10:34:50;;;;;;;;;1.00;1.00;;;;;;;;5211494;28;8785;-71
2022/03/05 10:37:22;;;;;;;;;1.00;1.00;;;;;;;;5228494;28;8780;-71
2022/03/05 10:39:53;;;;;;;;;1.00;1.00;;;;;;;;5205880;28;8818;-73
2022/03/05 10:42:27;;;;;;;;;7.80;7.20;;;;;;;;5207053;28;8833;-73
2022/03/05 10:44:58;;;;;;;;;1.40;1.00;;;;;;;;5227747;28;8799;-72
2022/03/05 10:47:39;;;;;;;;;0.60;0.60;;;;;;;;5211149;28;8758;-72
2022/03/05 10:50:27;;;;;;;;;0.00;0.00;;;;;;;;5228103;28;8816;-72
2022/03/05 10:53:00;;;;;;;;;1.80;1.80;;;;;;;;5211345;28;8840;-71
2022/03/05 10:55:37;;;;;;;;;1.40;1.40;;;;;;;;5227772;28;8785;-71
2022/03/05 10:58:26;;;;;;;;;0.00;0.00;;;;;;;;5231111;28;8811;-71
2022/03/05 11:00:57;;;;;;;;;0.00;0.00;;;;;;;;5227996;28;8788;-71
2022/03/05 11:03:28;;;;;;;;;4.50;4.50;;;;;;;;5245395;28;10821;-72
2022/03/05 11:05:59;;;;;;;;;23.60;22.60;;;;;;;;5227434;28;11450;-71
2022/03/05 11:08:30;;;;;;;;;6.00;6.00;;;;;;;;5227999;28;8871;-70
2022/03/05 11:11:01;;;;;;;;;6.50;6.50;;;;;;;;5210265;28;8903;-71
2022/03/05 11:13:32;;;;;;;;;1.00;1.00;;;;;;;;5227504;28;11433;-72
2022/03/05 11:16:03;;;;;;;;;3.20;3.20;;;;;;;;5245305;28;8785;-72
2022/03/05 11:18:35;;;;;;;;;1.80;1.80;;;;;;;;5227615;28;8854;-71
2022/03/05 11:21:07;;;;;;;;;0.00;0.00;;;;;;;;5228108;28;8807;-72
2022/03/05 11:23:39;;;;;;;;;0.00;0.00;;;;;;;;5228339;28;8797;-72
2022/03/05 11:26:11;;;;;;;;;0.80;0.80;;;;;;;;5227527;28;8784;-72
2022/03/05 11:28:46;;;;;;;;;0.20;0.20;;;;;;;;5244975;28;8797;-72
2022/03/05 11:31:19;;;;;;;;;4.40;4.40;;;;;;;;5210987;28;9562;-72
2022/03/05 11:33:50;;;;;;;;;1.00;1.00;;;;;;;;5228352;28;8906;-71
2022/03/05 11:36:41;;;;;;;;;0.80;0.80;;;;;;;;5245156;28;8823;-72
2022/03/05 11:39:13;;;;;;;;;0.20;0.20;;;;;;;;5227604;28;8791;-72
2022/03/05 11:41:47;;;;;;;;;0.00;0.00;;;;;;;;5227731;28;9285;-71
2022/03/05 11:44:19;;;;;;;;;0.00;0.00;;;;;;;;5245782;28;9001;-72
2022/03/05 11:47:10;;;;;;;;;0.00;0.00;;;;;;;;5210424;28;8824;-73
2022/03/05 11:50:09;;;;;;;;;0.00;0.00;;;;;;;;5226937;28;8882;-73
2022/03/05 11:52:41;;;;;;;;;0.00;0.00;;;;;;;;5228502;28;9561;-71
2022/03/05 11:55:14;;;;;;;;;6.00;6.00;;;;;;;;5249490;28;8823;-71
2022/03/05 11:57:51;;;;;;;;;2.20;2.20;;;;;;;;5231236;28;8777;-72
2022/03/05 12:00:26;;;;;;;;;3.00;2.60;;;;;;;;5249469;28;8854;-71
2022/03/05 12:03:00;;;;;;;;;1.40;1.40;;;;;;;;5240936;28;8810;-72
2022/03/05 12:05:44;;;;;;;;;7.80;7.80;;;;;;;;5227212;28;9527;-71
2022/03/05 12:08:21;;;;;;;;;4.60;4.60;;;;;;;;5230657;28;8819;-72
2022/03/05 12:11:21;;;;;;;;;0.00;0.00;;;;;;;;5231799;28;8789;-71
2022/03/05 12:13:54;;;;;;;;;4.00;1.00;;;;;;;;5227053;28;8820;-72
2022/03/05 12:16:26;;;;;;;;;0.00;0.00;;;;;;;;5247552;28;8808;-71
2022/03/05 12:18:58;;;;;;;;;0.60;0.60;;;;;;;;5214590;28;9491;-72
2022/03/05 12:21:35;;;;;;;;;1.80;1.80;;;;;;;;5230159;28;8923;-72
2022/03/05 12:24:25;;;;;;;;;1.00;1.00;;;;;;;;5216916;28;9106;-72
2022/03/05 12:26:58;;;;;;;;;3.20;3.20;;;;;;;;5248195;28;8924;-73
2022/03/05 12:29:29;;;;;;;;;7.40;7.40;;;;;;;;5231172;28;9551;-72
2022/03/05 12:32:00;;;;;;;;;6.00;6.00;;;;;;;;5248618;28;8821;-72
2022/03/05 12:34:34;;;;;;;;;0.00;0.00;;;;;;;;5230460;28;11432;-70
2022/03/05 12:37:05;;;;;;;;;6.60;6.60;;;;;;;;5231045;28;8808;-71
2022/03/05 12:39:43;;;;;;;;;3.80;3.80;;;;;;;;5214169;28;8781;-70
2022/03/05 12:42:15;;;;;;;;;3.80;3.60;;;;;;;;5249419;28;8970;-71
2022/03/05 12:44:45;;;;;;;;;3.00;3.00;;;;;;;;5230834;28;8946;-71
2022/03/05 12:47:16;;;;;;;;;3.00;2.00;;;;;;;;5230818;28;8788;-72
2022/03/05 12:49:47;;;;;;;;;19.00;19.00;;;;;;;;5230879;28;8796;-72
2022/03/05 12:52:18;;;;;;;;;4.00;4.00;;;;;;;;5229690;28;8906;-72
2022/03/05 12:54:55;;;;;;;;;0.75;0.75;;;;;;;;5213629;28;8796;-72
2022/03/05 12:57:26;;;;;;;;;3.80;3.80;;;;;;;;5230431;28;8811;-72
2022/03/05 13:00:03;;;;;;;;;0.60;0.60;;;;;;;;5229776;28;8772;-72
2022/03/05 13:02:34;;;;;;;;;0.60;0.60;;;;;;;;5212493;28;9005;-73
2022/03/05 13:05:13;;;;;;;;;1.00;1.00;;;;;;;;5219742;28;8805;-72
2022/03/05 13:07:44;;;;;;;;;1.40;1.40;;;;;;;;5253930;28;8824;-73
2022/03/05 13:10:34;;;;;;;;;0.60;0.60;;;;;;;;5235741;28;9563;-71
2022/03/05 13:13:05;;;;;;;;;3.60;3.60;;;;;;;;5214484;28;8828;-71
2022/03/05 13:15:36;;;;;;;;;10.00;10.00;;;;;;;;5234293;28;8846;-72
2022/03/05 13:18:15;;;;;;;;;6.80;6.80;;;;;;;;5230681;28;8792;-70
2022/03/05 13:20:46;;;;;;;;;3.40;3.40;;;;;;;;5229724;28;8800;-71
2022/03/05 13:23:18;;;;;;;;;18.00;18.00;;;;;;;;5228891;28;8854;-71
2022/03/05 13:25:50;;;;;;;;;1.40;1.40;;;;;;;;5230610;28;12261;-71
2022/03/05 13:28:24;;;;;;;;;5.80;5.20;;;;;;;;5229680;28;8889;-70
2022/03/05 13:31:15;;;;;;;;;1.20;0.40;;;;;;;;5215834;28;8784;-71
2022/03/05 13:33:51;;;;;;;;;2.60;2.60;;;;;;;;5238663;28;8806;-71
2022/03/05 13:36:23;;;;;;;;;4.00;4.00;;;;;;;;5227965;28;8801;-69
2022/03/05 13:38:57;;;;;;;;;6.60;6.40;;;;;;;;5212398;28;8816;-71
2022/03/05 13:41:30;;;;;;;;;3.40;3.00;;;;;;;;5213384;28;8831;-71
2022/03/05 13:44:01;;;;;;;;;5.80;5.80;;;;;;;;5229221;28;8797;-71
2022/03/05 13:46:33;;;;;;;;;1.00;1.00;;;;;;;;5229649;28;8785;-71
2022/03/05 13:49:05;;;;;;;;;0.00;0.00;;;;;;;;5229301;28;10458;-72
2022/03/05 13:51:36;;;;;;;;;0.00;0.00;;;;;;;;5228612;28;9555;-72
2022/03/05 13:54:09;;;;;;;;;0.25;0.25;;;;;;;;5228992;28;8789;-70
2022/03/05 13:56:50;;;;;;;;;1.00;1.00;;;;;;;;5210264;28;11548;-70
2022/03/05 13:59:34;;;;;;;;;0.00;0.00;;;;;;;;5214614;28;9654;-72
2022/03/05 14:02:06;;;;;;;;;4.00;4.00;;;;;;;;5193303;28;8877;-72
2022/03/05 14:04:55;;;;;;;;;6.40;6.20;;;;;;;;5206538;28;8826;-73
2022/03/05 14:07:28;;;;;;;;;2.60;2.60;;;;;;;;5200957;28;8807;-73
2022/03/05 14:09:59;;;;;;;;;6.40;6.40;;;;;;;;5229595;28;8849;-73
2022/03/05 14:12:30;;;;;;;;;2.60;2.60;;;;;;;;5235672;28;8813;-71
2022/03/05 14:15:04;;;;;;;;;6.00;6.00;;;;;;;;5248719;28;8767;-70
2022/03/05 14:17:38;;;;;;;;;7.00;6.60;;;;;;;;5233025;28;8806;-71
2022/03/05 14:20:09;;;;;;;;;3.00;3.00;;;;;;;;5227457;28;8866;-70
2022/03/05 14:22:52;;;;;;;;;3.00;3.00;;;;;;;;5212312;28;8769;-71
2022/03/05 14:25:23;;;;;;;;;4.40;4.40;;;;;;;;5228298;28;8777;-71
2022/03/05 14:27:55;;;;;;;;;6.25;4.50;;;;;;;;5245965;28;8789;-71
2022/03/05 14:30:28;;;;;;;;;4.60;4.60;;;;;;;;5228815;28;8784;-71
2022/03/05 14:33:02;;;;;;;;;3.20;3.20;;;;;;;;5228434;28;8843;-71
2022/03/05 14:35:33;;;;;;;;;0.00;0.00;;;;;;;;5212001;28;8788;-70
2022/03/05 14:38:04;;;;;;;;;3.25;3.00;;;;;;;;5228250;28;8846;-71
2022/03/05 14:40:53;;;;;;;;;9.20;9.20;;;;;;;;5242581;28;10319;-73
2022/03/05 14:43:24;;;;;;;;;6.40;6.40;;;;;;;;5227091;28;8871;-71
2022/03/05 14:45:55;;;;;;;;;4.50;4.50;;;;;;;;5228230;28;8806;-71
2022/03/05 14:48:27;;;;;;;;;0.00;0.00;;;;;;;;5211652;28;11335;-71
2022/03/05 14:51:17;;;;;;;;;2.60;2.60;;;;;;;;5244876;28;8813;-76
2022/03/05 14:53:51;;;;;;;;;5.20;3.60;;;;;;;;5228548;28;8907;-71
2022/03/05 14:56:22;;;;;;;;;8.50;6.75;;;;;;;;5227567;28;8918;-72
2022/03/05 14:58:54;;;;;;;;;3.75;3.75;;;;;;;;5212302;28;8781;-72
2022/03/05 15:01:25;;;;;;;;;5.60;5.60;;;;;;;;5210609;28;10914;-70
2022/03/05 15:03:57;;;;;;;;;1.00;1.00;;;;;;;;5211411;28;8795;-71
2022/03/05 15:06:46;;;;;;;;;3.60;3.60;;;;;;;;5213710;28;8832;-72
2022/03/05 15:09:36;;;;;;;;;10.40;9.40;;;;;;;;5246017;28;8852;-73
2022/03/05 15:12:07;;;;;;;;;9.80;9.80;;;;;;;;5213001;28;8835;-72
2022/03/05 15:14:38;;;;;;;;;5.40;5.40;;;;;;;;5228337;28;8869;-72
2022/03/05 15:17:09;;;;;;;;;3.00;2.20;;;;;;;;5246065;28;8788;-71
2022/03/05 15:19:58;;;;;;;;;8.00;6.60;;;;;;;;5212996;28;9511;-71
2022/03/05 15:22:29;;;;;;;;;0.00;0.00;;;;;;;;5214291;28;8819;-71
2022/03/05 15:25:00;;;;;;;;;0.00;0.00;;;;;;;;5190568;28;8892;-72
2022/03/05 15:27:33;;;;;;;;;4.50;4.50;;;;;;;;5194826;28;8819;-73